A.mashakov — UAKC — position and weather

sailwx.info

Track history (hours):
 
Tides and Currents Weather Stations Pressure Air Temp Water Temp Dewpoint Dewpoint Depression Visibility Wind Speed Wind Dir Waves Ship Positions

A.mashakov

Last reported at 2018-Mar-14 02:06 UTC. Time now 2018-Jun-17 21:46 UTC.
Position N 70°10' E 032°01'.
Warning: this ship's position is months out of date.

Length 55 m; draft 5 m.

Type: Fishing. MMSI: 273219300.

Date/timePositionNaut miles runAvg speedWind from/ knotsBaromVisibWave heightAir tempDewpointWater temp
2018-Mar-14 02:06N 70°10' E 032°01'1 8.7
2018-Mar-14 01:59N 70°10' E 031°58'4 9.0
2018-Mar-14 01:30N 70°09' E 031°45'4 6.9
2018-Mar-14 00:59N 70°09' E 031°35'2 3.6
2018-Mar-14 00:30N 70°08' E 031°30'2 5.0
2018-Mar-14 00:00N 70°07' E 031°24'2 4.7
2018-Mar-13 23:30N 70°06' E 031°18'2 4.4
2018-Mar-13 23:00N 70°05' E 031°12'2 4.5
2018-Mar-13 22:30N 70°04' E 031°07'3 5.8
2018-Mar-13 22:00N 70°02' E 030°59'5 9.2
2018-Mar-13 21:30N 70°00' E 030°47'5 9.5
2018-Mar-13 20:58N 69°58' E 030°34'5 9.6
2018-Mar-13 20:29N 69°56' E 030°22'5 9.4
2018-Mar-13 20:00N 69°54' E 030°10'5 9.6
2018-Mar-13 19:30N 69°49' E 030°06'5 9.5
2018-Mar-13 19:00N 69°44' E 030°04'0 0.8
2018-Mar-13 18:30N 69°44' E 030°03'0 0.0
2018-Mar-13 18:00N 69°44' E 030°03'0 0.0
2018-Mar-13 17:30N 69°44' E 030°03'0 0.0
2018-Mar-13 17:00N 69°44' E 030°03'0 0.0
2018-Mar-13 16:30N 69°44' E 030°03'0 0.0
2018-Mar-13 16:00N 69°44' E 030°03'0 0.0
2018-Mar-13 15:30N 69°44' E 030°03'0 0.0
2018-Mar-13 14:59N 69°44' E 030°03'0 0.0
2018-Mar-13 14:29N 69°44' E 030°03'0 0.0
2018-Mar-13 13:59N 69°44' E 030°03'0 0.0
2018-Mar-13 13:28N 69°44' E 030°03'0 0.0
2018-Mar-13 12:58N 69°44' E 030°03'0 0.0
2018-Mar-13 12:28N 69°44' E 030°03'0 0.0
2018-Mar-13 11:58N 69°44' E 030°03'0 0.0
2018-Mar-13 11:28N 69°44' E 030°03'0 0.0
2018-Mar-13 11:00N 69°44' E 030°03'0 0.0
2018-Mar-13 10:30N 69°44' E 030°03'0 0.0
2018-Mar-13 09:58N 69°44' E 030°03'0 0.0
2018-Mar-13 09:28N 69°44' E 030°03'0 0.0
2018-Mar-13 08:55N 69°44' E 030°03'0 0.0
2018-Mar-13 08:28N 69°44' E 030°03'0 0.0
2018-Mar-13 07:58N 69°44' E 030°03'0 0.0
2018-Mar-13 07:28N 69°44' E 030°03'0 0.0
2018-Mar-13 07:00N 69°44' E 030°03'0 0.0
2018-Mar-13 06:30N 69°44' E 030°03'0 0.0
2018-Mar-13 06:00N 69°44' E 030°03'0 0.4
2018-Mar-13 05:30N 69°44' E 030°03'0 0.4
2018-Mar-13 04:58N 69°44' E 030°03'0 0.0
2018-Mar-13 04:28N 69°44' E 030°03'0 0.0
2018-Mar-13 03:58N 69°44' E 030°03'0 0.0
2018-Mar-13 03:28N 69°44' E 030°03'0 0.0
2018-Mar-13 03:00N 69°44' E 030°03'0 0.0
2018-Mar-13 02:29N 69°44' E 030°03'0 0.0
2018-Mar-13 01:59N 69°44' E 030°03'0 0.0
2018-Mar-13 01:28N 69°44' E 030°03'0 0.0
2018-Mar-13 00:58N 69°44' E 030°03'0 0.0
2018-Mar-13 00:29N 69°44' E 030°03'0 0.0
2018-Mar-12 23:58N 69°44' E 030°03'0 0.0
2018-Mar-12 23:30N 69°44' E 030°03'0 0.0
2018-Mar-12 23:00N 69°44' E 030°03'0 0.0
2018-Mar-12 22:30N 69°44' E 030°03'0 0.0
2018-Mar-12 22:00N 69°44' E 030°03'0 0.0
2018-Mar-12 21:30N 69°44' E 030°03'0 0.0
2018-Mar-12 21:00N 69°44' E 030°03'0 0.0
2018-Mar-12 20:30N 69°44' E 030°03'0 0.0
2018-Mar-12 20:00N 69°44' E 030°03'0 0.0
2018-Mar-12 19:30N 69°44' E 030°03'0 0.0
2018-Mar-12 18:59N 69°44' E 030°03'0 0.0
2018-Mar-12 18:29N 69°44' E 030°03'0 0.0
2018-Mar-12 17:58N 69°44' E 030°03'0 0.0
2018-Mar-12 17:28N 69°44' E 030°03'0 0.0
2018-Mar-12 17:00N 69°44' E 030°03'0 0.0
2018-Mar-12 16:30N 69°44' E 030°03'0 0.0
2018-Mar-12 16:00N 69°44' E 030°03'0 0.0
2018-Mar-12 15:30N 69°44' E 030°03'0 0.0
2018-Mar-12 14:59N 69°44' E 030°03'0 0.0
2018-Mar-12 14:29N 69°44' E 030°03'0 0.0
2018-Mar-12 13:59N 69°44' E 030°03'0 0.0
2018-Mar-12 13:29N 69°44' E 030°03'0 0.0
2018-Mar-12 12:58N 69°44' E 030°03'0 0.0
2018-Mar-12 12:30N 69°44' E 030°03'0 0.0
2018-Mar-12 11:59N 69°44' E 030°03'0 0.0
2018-Mar-12 11:29N 69°44' E 030°03'0 0.0
2018-Mar-12 10:57N 69°44' E 030°03'0 0.0
2018-Mar-12 10:30N 69°44' E 030°03'0 0.0
2018-Mar-12 10:00N 69°44' E 030°03'0 0.0
2018-Mar-12 09:30N 69°44' E 030°03'0 0.0
2018-Mar-12 09:00N 69°44' E 030°03'0 0.0
2018-Mar-12 08:28N 69°44' E 030°03'0 0.0
2018-Mar-12 07:58N 69°44' E 030°03'0 0.0
2018-Mar-12 07:28N 69°44' E 030°03'1 2.0
2018-Mar-12 06:59N 69°45' E 030°04'3 5.5
2018-Mar-12 06:30N 69°47' E 030°06'4 8.1
2018-Mar-12 05:59N 69°52' E 030°07'5 9.3
2018-Mar-12 05:30N 69°55' E 030°16'5 9.9
2018-Mar-12 05:00N 69°57' E 030°29'5 9.9
2018-Mar-12 04:30N 69°59' E 030°42'5 9.9
2018-Mar-12 03:58N 70°02' E 030°55'510.1
2018-Mar-12 03:28N 70°04' E 031°09'5 9.9
2018-Mar-12 03:00N 70°06' E 031°21'510.1
2018-Mar-12 02:30N 70°08' E 031°34'510.1
2018-Mar-12 02:00N 70°10' E 031°49'3 6.8
2018-Mar-12 01:30N 70°10' E 031°59'0 0.6
2018-Mar-12 01:00N 70°10' E 031°59'1 1.4
2018-Mar-12 00:30N 70°10' E 032°01'  
2018-Mar-06 02:03N 70°10' E 032°01'0 4.6
2018-Mar-06 02:00N 70°10' E 032°01'2 4.5
2018-Mar-06 01:29N 70°10' E 031°54'2 4.3
2018-Mar-06 01:00N 70°10' E 031°48'2 4.5
2018-Mar-06 00:30N 70°09' E 031°41'3 6.3
2018-Mar-06 00:00N 70°08' E 031°33'4 7.6
2018-Mar-05 23:30N 70°07' E 031°22'4 7.5
2018-Mar-05 22:58N 70°05' E 031°12'4 8.0
2018-Mar-05 22:30N 70°03' E 031°02'4 8.0
2018-Mar-05 22:00N 70°01' E 030°52'4 8.5
2018-Mar-05 21:29N 69°59' E 030°41'4 8.5
2018-Mar-05 21:00N 69°57' E 030°31'4 8.7
2018-Mar-05 20:29N 69°55' E 030°19'4 9.1
2018-Mar-05 20:00N 69°53' E 030°08'5 9.2
2018-Mar-05 19:30N 69°48' E 030°06'4 8.5
2018-Mar-05 19:00N 69°44' E 030°04'0 0.4
2018-Mar-05 18:28N 69°44' E 030°03'0 0.0
2018-Mar-05 17:58N 69°44' E 030°03'0 0.0
2018-Mar-05 17:28N 69°44' E 030°03'0 0.0
2018-Mar-05 16:58N 69°44' E 030°03'0 0.0
2018-Mar-05 16:10N 69°44' E 030°03'0 0.0
2018-Mar-05 15:58N 69°44' E 030°03'0 0.0
2018-Mar-05 15:28N 69°44' E 030°03'0 0.0
2018-Mar-05 14:58N 69°44' E 030°03'0 0.0
2018-Mar-05 14:30N 69°44' E 030°03'0 0.0
2018-Mar-05 14:00N 69°44' E 030°03'0 0.0
2018-Mar-05 13:30N 69°44' E 030°03'0 0.0
2018-Mar-05 13:00N 69°44' E 030°03'0 0.0
2018-Mar-05 12:30N 69°44' E 030°03'0 0.0
2018-Mar-05 12:00N 69°44' E 030°03'0 0.0
2018-Mar-05 11:28N 69°44' E 030°03'0 0.0
2018-Mar-05 10:58N 69°44' E 030°03'0 0.0
2018-Mar-05 10:28N 69°44' E 030°03'0 0.0
2018-Mar-05 09:59N 69°44' E 030°03'0 0.0
2018-Mar-05 09:29N 69°44' E 030°03'0 0.0
2018-Mar-05 08:58N 69°44' E 030°03'0 0.0
2018-Mar-05 08:28N 69°44' E 030°03'0 0.0
2018-Mar-05 07:58N 69°44' E 030°03'0 0.0
2018-Mar-05 07:28N 69°44' E 030°03'0 0.0
2018-Mar-05 06:58N 69°44' E 030°03'0 0.0
2018-Mar-05 06:30N 69°44' E 030°03'0 0.8
2018-Mar-05 05:59N 69°44' E 030°05'0 0.0
2018-Mar-05 05:28N 69°44' E 030°05'0 0.0
2018-Mar-05 05:00N 69°44' E 030°05'0 0.0
2018-Mar-05 04:30N 69°44' E 030°05'0 0.0
2018-Mar-05 04:00N 69°44' E 030°05'0 0.0
2018-Mar-05 03:30N 69°44' E 030°05'0 0.0
2018-Mar-05 02:59N 69°44' E 030°05'0 0.0
2018-Mar-05 02:29N 69°44' E 030°05'0 0.0
2018-Mar-05 01:59N 69°44' E 030°05'0 0.0
2018-Mar-05 01:29N 69°44' E 030°05'0 0.0
2018-Mar-05 00:59N 69°44' E 030°05'0 0.0
2018-Mar-05 00:30N 69°44' E 030°05'0 0.0
2018-Mar-05 00:00N 69°44' E 030°05'0 0.0
2018-Mar-04 23:30N 69°44' E 030°05'0 0.0
2018-Mar-04 23:00N 69°44' E 030°05'0 0.0
2018-Mar-04 22:30N 69°44' E 030°05'0 0.0
2018-Mar-04 21:59N 69°44' E 030°05'0 0.0
2018-Mar-04 21:29N 69°44' E 030°05'0 0.0
2018-Mar-04 21:00N 69°44' E 030°05'0 0.0
2018-Mar-04 20:30N 69°44' E 030°05'0 0.1
2018-Mar-04 20:00N 69°44' E 030°05'0 0.0
2018-Mar-04 19:30N 69°44' E 030°05'0 0.0
2018-Mar-04 18:57N 69°44' E 030°05'0 0.0
2018-Mar-04 18:27N 69°44' E 030°05'0 0.9
2018-Mar-04 17:59N 69°44' E 030°03'0 0.0
2018-Mar-04 17:28N 69°44' E 030°03'0 0.0
2018-Mar-04 16:58N 69°44' E 030°03'0 0.0
2018-Mar-04 16:25N 69°44' E 030°03'0 0.0
2018-Mar-04 16:00N 69°44' E 030°03'0 0.0
2018-Mar-04 15:30N 69°44' E 030°03'0 0.0
2018-Mar-04 14:59N 69°44' E 030°03'0 0.0
2018-Mar-04 14:30N 69°44' E 030°03'0 0.0
2018-Mar-04 14:00N 69°44' E 030°03'0 0.0
2018-Mar-04 13:30N 69°44' E 030°03'0 0.0
2018-Mar-04 12:59N 69°44' E 030°03'0 0.0
2018-Mar-04 12:31N 69°44' E 030°03'0 0.0
2018-Mar-04 12:00N 69°44' E 030°03'0 0.0
2018-Mar-04 11:30N 69°44' E 030°03'0 0.0
2018-Mar-04 10:59N 69°44' E 030°03'0 0.0
2018-Mar-04 10:30N 69°44' E 030°03'0 0.0
2018-Mar-04 09:59N 69°44' E 030°03'0 0.0
2018-Mar-04 09:29N 69°44' E 030°03'0 0.0
2018-Mar-04 09:00N 69°44' E 030°03'0 0.0
2018-Mar-04 08:29N 69°44' E 030°03'0 0.0
2018-Mar-04 08:00N 69°44' E 030°03'0 0.0
2018-Mar-04 07:30N 69°44' E 030°03'0 0.0
2018-Mar-04 07:01N 69°44' E 030°03'0 0.0
2018-Mar-04 06:29N 69°44' E 030°03'1 2.8
2018-Mar-04 06:00N 69°45' E 030°05'4 7.8
2018-Mar-04 05:30N 69°49' E 030°07'4 8.8
2018-Mar-04 05:00N 69°53' E 030°09'3 5.5
2018-Mar-04 04:30N 69°55' E 030°16'2 3.7
2018-Mar-04 04:00N 69°56' E 030°21'2 3.3
2018-Mar-04 03:30N 69°56' E 030°25'2 3.4
2018-Mar-04 02:59N 69°57' E 030°30'1 3.0
2018-Mar-04 02:31N 69°58' E 030°33'  
Track history (hours):
 
Tides and Currents Weather Stations Pressure Air Temp Water Temp Dewpoint Dewpoint Depression Visibility Wind Speed Wind Dir Waves Ship Positions

A.mashakov

Last reported at 2018-Mar-14 02:06 UTC. Time now 2018-Jun-17 21:46 UTC.
Position N 70°10' E 032°01'.
Warning: this ship's position is months out of date.

Length 55 m; draft 5 m.

Type: Fishing. MMSI: 273219300.

Date/timePositionNaut miles runAvg speedWind from/ knotsBaromVisibWave heightAir tempDewpointWater temp
2018-Mar-14 02:06N 70°10' E 032°01'1 8.7
2018-Mar-14 01:59N 70°10' E 031°58'4 9.0
2018-Mar-14 01:30N 70°09' E 031°45'4 6.9
2018-Mar-14 00:59N 70°09' E 031°35'2 3.6
2018-Mar-14 00:30N 70°08' E 031°30'2 5.0
2018-Mar-14 00:00N 70°07' E 031°24'2 4.7
2018-Mar-13 23:30N 70°06' E 031°18'2 4.4
2018-Mar-13 23:00N 70°05' E 031°12'2 4.5
2018-Mar-13 22:30N 70°04' E 031°07'3 5.8
2018-Mar-13 22:00N 70°02' E 030°59'5 9.2
2018-Mar-13 21:30N 70°00' E 030°47'5 9.5
2018-Mar-13 20:58N 69°58' E 030°34'5 9.6
2018-Mar-13 20:29N 69°56' E 030°22'5 9.4
2018-Mar-13 20:00N 69°54' E 030°10'5 9.6
2018-Mar-13 19:30N 69°49' E 030°06'5 9.5
2018-Mar-13 19:00N 69°44' E 030°04'0 0.8
2018-Mar-13 18:30N 69°44' E 030°03'0 0.0
2018-Mar-13 18:00N 69°44' E 030°03'0 0.0
2018-Mar-13 17:30N 69°44' E 030°03'0 0.0
2018-Mar-13 17:00N 69°44' E 030°03'0 0.0
2018-Mar-13 16:30N 69°44' E 030°03'0 0.0
2018-Mar-13 16:00N 69°44' E 030°03'0 0.0
2018-Mar-13 15:30N 69°44' E 030°03'0 0.0
2018-Mar-13 14:59N 69°44' E 030°03'0 0.0
2018-Mar-13 14:29N 69°44' E 030°03'0 0.0
2018-Mar-13 13:59N 69°44' E 030°03'0 0.0
2018-Mar-13 13:28N 69°44' E 030°03'0 0.0
2018-Mar-13 12:58N 69°44' E 030°03'0 0.0
2018-Mar-13 12:28N 69°44' E 030°03'0 0.0
2018-Mar-13 11:58N 69°44' E 030°03'0 0.0
2018-Mar-13 11:28N 69°44' E 030°03'0 0.0
2018-Mar-13 11:00N 69°44' E 030°03'0 0.0
2018-Mar-13 10:30N 69°44' E 030°03'0 0.0
2018-Mar-13 09:58N 69°44' E 030°03'0 0.0
2018-Mar-13 09:28N 69°44' E 030°03'0 0.0
2018-Mar-13 08:55N 69°44' E 030°03'0 0.0
2018-Mar-13 08:28N 69°44' E 030°03'0 0.0
2018-Mar-13 07:58N 69°44' E 030°03'0 0.0
2018-Mar-13 07:28N 69°44' E 030°03'0 0.0
2018-Mar-13 07:00N 69°44' E 030°03'0 0.0
2018-Mar-13 06:30N 69°44' E 030°03'0 0.0
2018-Mar-13 06:00N 69°44' E 030°03'0 0.4
2018-Mar-13 05:30N 69°44' E 030°03'0 0.4
2018-Mar-13 04:58N 69°44' E 030°03'0 0.0
2018-Mar-13 04:28N 69°44' E 030°03'0 0.0
2018-Mar-13 03:58N 69°44' E 030°03'0 0.0
2018-Mar-13 03:28N 69°44' E 030°03'0 0.0
2018-Mar-13 03:00N 69°44' E 030°03'0 0.0
2018-Mar-13 02:29N 69°44' E 030°03'0 0.0
2018-Mar-13 01:59N 69°44' E 030°03'0 0.0
2018-Mar-13 01:28N 69°44' E 030°03'0 0.0
2018-Mar-13 00:58N 69°44' E 030°03'0 0.0
2018-Mar-13 00:29N 69°44' E 030°03'0 0.0
2018-Mar-12 23:58N 69°44' E 030°03'0 0.0
2018-Mar-12 23:30N 69°44' E 030°03'0 0.0
2018-Mar-12 23:00N 69°44' E 030°03'0 0.0
2018-Mar-12 22:30N 69°44' E 030°03'0 0.0
2018-Mar-12 22:00N 69°44' E 030°03'0 0.0
2018-Mar-12 21:30N 69°44' E 030°03'0 0.0
2018-Mar-12 21:00N 69°44' E 030°03'0 0.0
2018-Mar-12 20:30N 69°44' E 030°03'0 0.0
2018-Mar-12 20:00N 69°44' E 030°03'0 0.0
2018-Mar-12 19:30N 69°44' E 030°03'0 0.0
2018-Mar-12 18:59N 69°44' E 030°03'0 0.0
2018-Mar-12 18:29N 69°44' E 030°03'0 0.0
2018-Mar-12 17:58N 69°44' E 030°03'0 0.0
2018-Mar-12 17:28N 69°44' E 030°03'0 0.0
2018-Mar-12 17:00N 69°44' E 030°03'0 0.0
2018-Mar-12 16:30N 69°44' E 030°03'0 0.0
2018-Mar-12 16:00N 69°44' E 030°03'0 0.0
2018-Mar-12 15:30N 69°44' E 030°03'0 0.0
2018-Mar-12 14:59N 69°44' E 030°03'0 0.0
2018-Mar-12 14:29N 69°44' E 030°03'0 0.0
2018-Mar-12 13:59N 69°44' E 030°03'0 0.0
2018-Mar-12 13:29N 69°44' E 030°03'0 0.0
2018-Mar-12 12:58N 69°44' E 030°03'0 0.0
2018-Mar-12 12:30N 69°44' E 030°03'0 0.0
2018-Mar-12 11:59N 69°44' E 030°03'0 0.0
2018-Mar-12 11:29N 69°44' E 030°03'0 0.0
2018-Mar-12 10:57N 69°44' E 030°03'0 0.0
2018-Mar-12 10:30N 69°44' E 030°03'0 0.0
2018-Mar-12 10:00N 69°44' E 030°03'0 0.0
2018-Mar-12 09:30N 69°44' E 030°03'0 0.0
2018-Mar-12 09:00N 69°44' E 030°03'0 0.0
2018-Mar-12 08:28N 69°44' E 030°03'0 0.0
2018-Mar-12 07:58N 69°44' E 030°03'0 0.0
2018-Mar-12 07:28N 69°44' E 030°03'1 2.0
2018-Mar-12 06:59N 69°45' E 030°04'3 5.5
2018-Mar-12 06:30N 69°47' E 030°06'4 8.1
2018-Mar-12 05:59N 69°52' E 030°07'5 9.3
2018-Mar-12 05:30N 69°55' E 030°16'5 9.9
2018-Mar-12 05:00N 69°57' E 030°29'5 9.9
2018-Mar-12 04:30N 69°59' E 030°42'5 9.9
2018-Mar-12 03:58N 70°02' E 030°55'510.1
2018-Mar-12 03:28N 70°04' E 031°09'5 9.9
2018-Mar-12 03:00N 70°06' E 031°21'510.1
2018-Mar-12 02:30N 70°08' E 031°34'510.1
2018-Mar-12 02:00N 70°10' E 031°49'3 6.8
2018-Mar-12 01:30N 70°10' E 031°59'0 0.6
2018-Mar-12 01:00N 70°10' E 031°59'1 1.4
2018-Mar-12 00:30N 70°10' E 032°01'  
2018-Mar-06 02:03N 70°10' E 032°01'0 4.6
2018-Mar-06 02:00N 70°10' E 032°01'2 4.5
2018-Mar-06 01:29N 70°10' E 031°54'2 4.3
2018-Mar-06 01:00N 70°10' E 031°48'2 4.5
2018-Mar-06 00:30N 70°09' E 031°41'3 6.3
2018-Mar-06 00:00N 70°08' E 031°33'4 7.6
2018-Mar-05 23:30N 70°07' E 031°22'4 7.5
2018-Mar-05 22:58N 70°05' E 031°12'4 8.0
2018-Mar-05 22:30N 70°03' E 031°02'4 8.0
2018-Mar-05 22:00N 70°01' E 030°52'4 8.5
2018-Mar-05 21:29N 69°59' E 030°41'4 8.5
2018-Mar-05 21:00N 69°57' E 030°31'4 8.7
2018-Mar-05 20:29N 69°55' E 030°19'4 9.1
2018-Mar-05 20:00N 69°53' E 030°08'5 9.2
2018-Mar-05 19:30N 69°48' E 030°06'4 8.5
2018-Mar-05 19:00N 69°44' E 030°04'0 0.4
2018-Mar-05 18:28N 69°44' E 030°03'0 0.0
2018-Mar-05 17:58N 69°44' E 030°03'0 0.0
2018-Mar-05 17:28N 69°44' E 030°03'0 0.0
2018-Mar-05 16:58N 69°44' E 030°03'0 0.0
2018-Mar-05 16:10N 69°44' E 030°03'0 0.0
2018-Mar-05 15:58N 69°44' E 030°03'0 0.0
2018-Mar-05 15:28N 69°44' E 030°03'0 0.0
2018-Mar-05 14:58N 69°44' E 030°03'0 0.0
2018-Mar-05 14:30N 69°44' E 030°03'0 0.0
2018-Mar-05 14:00N 69°44' E 030°03'0 0.0
2018-Mar-05 13:30N 69°44' E 030°03'0 0.0
2018-Mar-05 13:00N 69°44' E 030°03'0 0.0
2018-Mar-05 12:30N 69°44' E 030°03'0 0.0
2018-Mar-05 12:00N 69°44' E 030°03'0 0.0
2018-Mar-05 11:28N 69°44' E 030°03'0 0.0
2018-Mar-05 10:58N 69°44' E 030°03'0 0.0
2018-Mar-05 10:28N 69°44' E 030°03'0 0.0
2018-Mar-05 09:59N 69°44' E 030°03'0 0.0
2018-Mar-05 09:29N 69°44' E 030°03'0 0.0
2018-Mar-05 08:58N 69°44' E 030°03'0 0.0
2018-Mar-05 08:28N 69°44' E 030°03'0 0.0
2018-Mar-05 07:58N 69°44' E 030°03'0 0.0
2018-Mar-05 07:28N 69°44' E 030°03'0 0.0
2018-Mar-05 06:58N 69°44' E 030°03'0 0.0
2018-Mar-05 06:30N 69°44' E 030°03'0 0.8
2018-Mar-05 05:59N 69°44' E 030°05'0 0.0
2018-Mar-05 05:28N 69°44' E 030°05'0 0.0
2018-Mar-05 05:00N 69°44' E 030°05'0 0.0
2018-Mar-05 04:30N 69°44' E 030°05'0 0.0
2018-Mar-05 04:00N 69°44' E 030°05'0 0.0
2018-Mar-05 03:30N 69°44' E 030°05'0 0.0
2018-Mar-05 02:59N 69°44' E 030°05'0 0.0
2018-Mar-05 02:29N 69°44' E 030°05'0 0.0
2018-Mar-05 01:59N 69°44' E 030°05'0 0.0
2018-Mar-05 01:29N 69°44' E 030°05'0 0.0
2018-Mar-05 00:59N 69°44' E 030°05'0 0.0
2018-Mar-05 00:30N 69°44' E 030°05'0 0.0
2018-Mar-05 00:00N 69°44' E 030°05'0 0.0
2018-Mar-04 23:30N 69°44' E 030°05'0 0.0
2018-Mar-04 23:00N 69°44' E 030°05'0 0.0
2018-Mar-04 22:30N 69°44' E 030°05'0 0.0
2018-Mar-04 21:59N 69°44' E 030°05'0 0.0
2018-Mar-04 21:29N 69°44' E 030°05'0 0.0
2018-Mar-04 21:00N 69°44' E 030°05'0 0.0
2018-Mar-04 20:30N 69°44' E 030°05'0 0.1
2018-Mar-04 20:00N 69°44' E 030°05'0 0.0
2018-Mar-04 19:30N 69°44' E 030°05'0 0.0
2018-Mar-04 18:57N 69°44' E 030°05'0 0.0
2018-Mar-04 18:27N 69°44' E 030°05'0 0.9
2018-Mar-04 17:59N 69°44' E 030°03'0 0.0
2018-Mar-04 17:28N 69°44' E 030°03'0 0.0
2018-Mar-04 16:58N 69°44' E 030°03'0 0.0
2018-Mar-04 16:25N 69°44' E 030°03'0 0.0
2018-Mar-04 16:00N 69°44' E 030°03'0 0.0
2018-Mar-04 15:30N 69°44' E 030°03'0 0.0
2018-Mar-04 14:59N 69°44' E 030°03'0 0.0
2018-Mar-04 14:30N 69°44' E 030°03'0 0.0
2018-Mar-04 14:00N 69°44' E 030°03'0 0.0
2018-Mar-04 13:30N 69°44' E 030°03'0 0.0
2018-Mar-04 12:59N 69°44' E 030°03'0 0.0
2018-Mar-04 12:31N 69°44' E 030°03'0 0.0
2018-Mar-04 12:00N 69°44' E 030°03'0 0.0
2018-Mar-04 11:30N 69°44' E 030°03'0 0.0
2018-Mar-04 10:59N 69°44' E 030°03'0 0.0
2018-Mar-04 10:30N 69°44' E 030°03'0 0.0
2018-Mar-04 09:59N 69°44' E 030°03'0 0.0
2018-Mar-04 09:29N 69°44' E 030°03'0 0.0
2018-Mar-04 09:00N 69°44' E 030°03'0 0.0
2018-Mar-04 08:29N 69°44' E 030°03'0 0.0
2018-Mar-04 08:00N 69°44' E 030°03'0 0.0
2018-Mar-04 07:30N 69°44' E 030°03'0 0.0
2018-Mar-04 07:01N 69°44' E 030°03'0 0.0
2018-Mar-04 06:29N 69°44' E 030°03'1 2.8
2018-Mar-04 06:00N 69°45' E 030°05'4 7.8
2018-Mar-04 05:30N 69°49' E 030°07'4 8.8
2018-Mar-04 05:00N 69°53' E 030°09'3 5.5
2018-Mar-04 04:30N 69°55' E 030°16'2 3.7
2018-Mar-04 04:00N 69°56' E 030°21'2 3.3
2018-Mar-04 03:30N 69°56' E 030°25'2 3.4
2018-Mar-04 02:59N 69°57' E 030°30'1 3.0
2018-Mar-04 02:31N 69°58' E 030°33'  

Dump ship's entire track history